sensor_id;sensor_type;location;lat;lon;timestamp;pressure;altitude;pressure_sealevel;temperature;humidity
71795;BME280;59641;45.188;5.712;2022-07-21T00:02:25;99638.81;;;31.01;39.21
71795;BME280;59641;45.188;5.712;2022-07-21T00:04:50;99633.94;;;30.98;39.06
71795;BME280;59641;45.188;5.712;2022-07-21T00:07:16;99630.75;;;30.96;39.59
71795;BME280;59641;45.188;5.712;2022-07-21T00:09:41;99636.63;;;30.94;39.36
71795;BME280;59641;45.188;5.712;2022-07-21T00:12:07;99639.41;;;30.94;39.84
71795;BME280;59641;45.188;5.712;2022-07-21T00:14:32;99643.69;;;30.92;40.06
71795;BME280;59641;45.188;5.712;2022-07-21T00:16:58;99650.03;;;30.92;39.50
71795;BME280;59641;45.188;5.712;2022-07-21T00:19:23;99646.78;;;30.90;39.63
71795;BME280;59641;45.188;5.712;2022-07-21T00:21:49;99643.94;;;30.87;39.05
71795;BME280;59641;45.188;5.712;2022-07-21T00:24:15;99634.44;;;30.88;39.71
71795;BME280;59641;45.188;5.712;2022-07-21T00:26:40;99639.53;;;30.86;39.23
71795;BME280;59641;45.188;5.712;2022-07-21T00:29:07;99634.00;;;30.86;39.44
71795;BME280;59641;45.188;5.712;2022-07-21T00:31:32;99635.97;;;30.85;39.77
71795;BME280;59641;45.188;5.712;2022-07-21T00:33:58;99635.50;;;30.83;39.46
71795;BME280;59641;45.188;5.712;2022-07-21T00:36:24;99633.88;;;30.82;39.59
71795;BME280;59641;45.188;5.712;2022-07-21T00:38:49;99635.00;;;30.81;39.44
71795;BME280;59641;45.188;5.712;2022-07-21T00:41:15;99633.41;;;30.80;39.20
71795;BME280;59641;45.188;5.712;2022-07-21T00:43:41;99633.75;;;30.78;38.92
71795;BME280;59641;45.188;5.712;2022-07-21T00:46:06;99634.56;;;30.79;39.45
71795;BME280;59641;45.188;5.712;2022-07-21T00:48:32;99637.69;;;30.77;39.51
71795;BME280;59641;45.188;5.712;2022-07-21T00:50:57;99630.53;;;30.76;39.42
71795;BME280;59641;45.188;5.712;2022-07-21T00:53:24;99629.69;;;30.76;39.69
71795;BME280;59641;45.188;5.712;2022-07-21T00:55:49;99635.25;;;30.76;39.42
71795;BME280;59641;45.188;5.712;2022-07-21T00:58:15;99640.31;;;30.74;39.11
71795;BME280;59641;45.188;5.712;2022-07-21T01:00:40;99633.97;;;30.73;39.09
71795;BME280;59641;45.188;5.712;2022-07-21T01:03:06;99632.38;;;30.72;39.10
71795;BME280;59641;45.188;5.712;2022-07-21T01:05:33;99635.16;;;30.72;39.56
71795;BME280;59641;45.188;5.712;2022-07-21T01:07:59;99644.97;;;30.70;39.34
71795;BME280;59641;45.188;5.712;2022-07-21T01:10:28;99636.66;;;30.70;39.22
71795;BME280;59641;45.188;5.712;2022-07-21T01:12:54;99629.84;;;30.67;39.58
71795;BME280;59641;45.188;5.712;2022-07-21T01:15:20;99637.00;;;30.68;39.77
71795;BME280;59641;45.188;5.712;2022-07-21T01:17:46;99627.09;;;30.67;38.94
71795;BME280;59641;45.188;5.712;2022-07-21T01:20:17;99618.66;;;30.64;39.39
71795;BME280;59641;45.188;5.712;2022-07-21T01:22:46;99621.09;;;30.65;39.13
71795;BME280;59641;45.188;5.712;2022-07-21T01:25:11;99628.13;;;30.63;39.13
71795;BME280;59641;45.188;5.712;2022-07-21T01:27:37;99622.59;;;30.63;39.86
71795;BME280;59641;45.188;5.712;2022-07-21T01:30:05;99626.16;;;30.63;39.56
71795;BME280;59641;45.188;5.712;2022-07-21T01:32:36;99620.63;;;30.63;39.81
71795;BME280;59641;45.188;5.712;2022-07-21T01:35:07;99629.25;;;30.62;39.83
71795;BME280;59641;45.188;5.712;2022-07-21T01:37:36;99616.59;;;30.61;39.34
71795;BME280;59641;45.188;5.712;2022-07-21T01:40:02;99621.31;;;30.60;39.76
71795;BME280;59641;45.188;5.712;2022-07-21T01:42:46;99624.09;;;30.60;39.69
71795;BME280;59641;45.188;5.712;2022-07-21T01:45:12;99626.06;;;30.60;39.88
71795;BME280;59641;45.188;5.712;2022-07-21T01:47:37;99620.06;;;30.57;39.33
71795;BME280;59641;45.188;5.712;2022-07-21T01:50:03;99625.22;;;30.59;39.86
71795;BME280;59641;45.188;5.712;2022-07-21T01:52:28;99623.28;;;30.60;39.41
71795;BME280;59641;45.188;5.712;2022-07-21T01:54:54;99622.00;;;30.57;39.56
71795;BME280;59641;45.188;5.712;2022-07-21T01:57:19;99624.44;;;30.58;39.75
71795;BME280;59641;45.188;5.712;2022-07-21T01:59:45;99627.53;;;30.57;39.60
71795;BME280;59641;45.188;5.712;2022-07-21T02:02:10;99622.00;;;30.57;39.57
71795;BME280;59641;45.188;5.712;2022-07-21T02:04:36;99612.09;;;30.56;39.24
71795;BME280;59641;45.188;5.712;2022-07-21T02:07:02;99611.28;;;30.55;40.00
71795;BME280;59641;45.188;5.712;2022-07-21T02:09:28;99621.56;;;30.55;39.83
71795;BME280;59641;45.188;5.712;2022-07-21T02:11:53;99614.41;;;30.54;39.75
71795;BME280;59641;45.188;5.712;2022-07-21T02:14:19;99621.56;;;30.55;40.10
71795;BME280;59641;45.188;5.712;2022-07-21T02:16:44;99620.72;;;30.54;39.67
71795;BME280;59641;45.188;5.712;2022-07-21T02:19:10;99617.97;;;30.54;39.40
71795;BME280;59641;45.188;5.712;2022-07-21T02:21:35;99621.44;;;30.51;39.54
71795;BME280;59641;45.188;5.712;2022-07-21T02:24:01;99617.53;;;30.52;39.64
71795;BME280;59641;45.188;5.712;2022-07-21T02:26:27;99623.06;;;30.52;39.47
71795;BME280;59641;45.188;5.712;2022-07-21T02:28:52;99624.53;;;30.50;39.20
71795;BME280;59641;45.188;5.712;2022-07-21T02:31:18;99627.31;;;30.50;39.32
71795;BME280;59641;45.188;5.712;2022-07-21T02:33:43;99625.38;;;30.50;39.79
71795;BME280;59641;45.188;5.712;2022-07-21T02:36:09;99613.03;;;30.48;39.57
71795;BME280;59641;45.188;5.712;2022-07-21T02:38:34;99622.13;;;30.48;39.37
71795;BME280;59641;45.188;5.712;2022-07-21T02:41:00;99618.56;;;30.48;40.02
71795;BME280;59641;45.188;5.712;2022-07-21T02:43:25;99614.16;;;30.47;39.62
71795;BME280;59641;45.188;5.712;2022-07-21T02:45:51;99620.50;;;30.47;39.88
71795;BME280;59641;45.188;5.712;2022-07-21T02:48:17;99610.13;;;30.44;39.59
71795;BME280;59641;45.188;5.712;2022-07-21T02:50:43;99613.38;;;30.46;39.41
71795;BME280;59641;45.188;5.712;2022-07-21T02:53:20;99617.31;;;30.45;39.79
71795;BME280;59641;45.188;5.712;2022-07-21T02:55:48;99618.09;;;30.46;40.04
71795;BME280;59641;45.188;5.712;2022-07-21T02:58:20;99620.06;;;30.45;39.52
71795;BME280;59641;45.188;5.712;2022-07-21T03:00:57;99614.53;;;30.45;39.55
71795;BME280;59641;45.188;5.712;2022-07-21T03:03:26;99606.91;;;30.42;39.51
71795;BME280;59641;45.188;5.712;2022-07-21T03:05:52;99614.06;;;30.43;39.69
71795;BME280;59641;45.188;5.712;2022-07-21T03:08:18;99608.88;;;30.42;39.42
71795;BME280;59641;45.188;5.712;2022-07-21T03:10:44;99610.84;;;30.41;39.63
71795;BME280;59641;45.188;5.712;2022-07-21T03:13:09;99615.56;;;30.41;39.37
71795;BME280;59641;45.188;5.712;2022-07-21T03:15:36;99607.59;;;30.39;39.60
71795;BME280;59641;45.188;5.712;2022-07-21T03:18:01;99612.34;;;30.39;39.56
71795;BME280;59641;45.188;5.712;2022-07-21T03:20:30;99611.16;;;30.40;39.28
71795;BME280;59641;45.188;5.712;2022-07-21T03:22:56;99626.19;;;30.39;39.43
71795;BME280;59641;45.188;5.712;2022-07-21T03:25:23;99621.78;;;30.38;39.59
71795;BME280;59641;45.188;5.712;2022-07-21T03:27:49;99622.47;;;30.34;39.54
71795;BME280;59641;45.188;5.712;2022-07-21T03:30:16;99618.56;;;30.35;39.48
71795;BME280;59641;45.188;5.712;2022-07-21T03:32:42;99620.06;;;30.33;38.87
71795;BME280;59641;45.188;5.712;2022-07-21T03:35:09;99622.81;;;30.33;39.34
71795;BME280;59641;45.188;5.712;2022-07-21T03:37:55;99631.13;;;30.33;39.80
71795;BME280;59641;45.188;5.712;2022-07-21T03:40:23;99632.63;;;30.30;38.92
71795;BME280;59641;45.188;5.712;2022-07-21T03:42:50;99629.06;;;30.30;39.03
71795;BME280;59641;45.188;5.712;2022-07-21T03:45:16;99631.34;;;30.28;39.39
71795;BME280;59641;45.188;5.712;2022-07-21T03:47:41;99626.66;;;30.28;39.33
71795;BME280;59641;45.188;5.712;2022-07-21T03:50:07;99631.34;;;30.28;39.28
71795;BME280;59641;45.188;5.712;2022-07-21T03:52:33;99627.31;;;30.25;39.62
71795;BME280;59641;45.188;5.712;2022-07-21T03:54:58;99630.09;;;30.25;39.35
71795;BME280;59641;45.188;5.712;2022-07-21T03:57:37;99629.25;;;30.25;39.27
71795;BME280;59641;45.188;5.712;2022-07-21T04:00:10;99644.72;;;30.26;39.21
71795;BME280;59641;45.188;5.712;2022-07-21T04:02:36;99643.44;;;30.23;39.61
71795;BME280;59641;45.188;5.712;2022-07-21T04:05:02;99639.84;;;30.23;39.02
71795;BME280;59641;45.188;5.712;2022-07-21T04:07:28;99639.84;;;30.23;39.19
71795;BME280;59641;45.188;5.712;2022-07-21T04:09:54;99635.50;;;30.22;38.77
71795;BME280;59641;45.188;5.712;2022-07-21T04:12:20;99639.41;;;30.21;38.76
71795;BME280;59641;45.188;5.712;2022-07-21T04:14:45;99637.78;;;30.20;39.05
71795;BME280;59641;45.188;5.712;2022-07-21T04:17:10;99632.25;;;30.20;39.32
71795;BME280;59641;45.188;5.712;2022-07-21T04:19:36;99626.72;;;30.20;39.39
71795;BME280;59641;45.188;5.712;2022-07-21T04:22:14;99631.44;;;30.19;39.70
71795;BME280;59641;45.188;5.712;2022-07-21T04:24:41;99635.34;;;30.18;39.35
71795;BME280;59641;45.188;5.712;2022-07-21T04:27:06;99636.16;;;30.19;39.32
71795;BME280;59641;45.188;5.712;2022-07-21T04:29:32;99633.75;;;30.17;39.51
71795;BME280;59641;45.188;5.712;2022-07-21T04:31:57;99635.72;;;30.17;39.18
71795;BME280;59641;45.188;5.712;2022-07-21T04:34:22;99632.94;;;30.17;39.10
71795;BME280;59641;45.188;5.712;2022-07-21T04:36:48;99634.88;;;30.16;39.40
71795;BME280;59641;45.188;5.712;2022-07-21T04:39:15;99632.50;;;30.14;39.01
71795;BME280;59641;45.188;5.712;2022-07-21T04:41:40;99631.31;;;30.15;39.11
71795;BME280;59641;45.188;5.712;2022-07-21T04:44:05;99629.72;;;30.14;38.99
71795;BME280;59641;45.188;5.712;2022-07-21T04:46:31;99631.69;;;30.14;39.12
71795;BME280;59641;45.188;5.712;2022-07-21T04:48:56;99632.03;;;30.12;39.00
71795;BME280;59641;45.188;5.712;2022-07-21T04:51:22;99633.19;;;30.11;39.01
71795;BME280;59641;45.188;5.712;2022-07-21T04:53:47;99633.97;;;30.12;39.23
71795;BME280;59641;45.188;5.712;2022-07-21T04:56:13;99632.34;;;30.11;39.14
71795;BME280;59641;45.188;5.712;2022-07-21T04:58:38;99637.88;;;30.11;39.05
71795;BME280;59641;45.188;5.712;2022-07-21T05:01:04;99637.09;;;30.10;39.36
71795;BME280;59641;45.188;5.712;2022-07-21T05:03:29;99639.84;;;30.10;39.00
71795;BME280;59641;45.188;5.712;2022-07-21T05:05:55;99644.59;;;30.10;38.95
71795;BME280;59641;45.188;5.712;2022-07-21T05:08:20;99642.94;;;30.09;38.97
71795;BME280;59641;45.188;5.712;2022-07-21T05:10:46;99641.00;;;30.09;39.21
71795;BME280;59641;45.188;5.712;2022-07-21T05:13:11;99637.78;;;30.07;39.20
71795;BME280;59641;45.188;5.712;2022-07-21T05:15:37;99638.59;;;30.08;39.62
71795;BME280;59641;45.188;5.712;2022-07-21T05:18:07;99644.91;;;30.08;39.83
71795;BME280;59641;45.188;5.712;2022-07-21T05:20:33;99642.63;;;30.10;39.59
71795;BME280;59641;45.188;5.712;2022-07-21T05:23:04;99641.00;;;30.09;39.67
71795;BME280;59641;45.188;5.712;2022-07-21T05:25:29;99652.09;;;30.09;39.63
71795;BME280;59641;45.188;5.712;2022-07-21T05:27:57;99648.16;;;30.10;39.47
71795;BME280;59641;45.188;5.712;2022-07-21T05:30:23;99647.34;;;30.10;39.63
71795;BME280;59641;45.188;5.712;2022-07-21T05:36:05;99656.44;;;30.10;39.71
71795;BME280;59641;45.188;5.712;2022-07-21T05:38:31;99648.50;;;30.09;39.27
71795;BME280;59641;45.188;5.712;2022-07-21T05:40:57;99644.13;;;30.08;39.74
71795;BME280;59641;45.188;5.712;2022-07-21T05:43:26;99650.34;;;30.05;39.50
71795;BME280;59641;45.188;5.712;2022-07-21T05:45:52;99644.81;;;30.05;39.54
71795;BME280;59641;45.188;5.712;2022-07-21T05:48:18;99655.88;;;30.05;39.32
71795;BME280;59641;45.188;5.712;2022-07-21T05:50:44;99658.66;;;30.05;39.23
71795;BME280;59641;45.188;5.712;2022-07-21T05:53:10;99655.06;;;30.04;39.43
71795;BME280;59641;45.188;5.712;2022-07-21T05:55:35;99660.63;;;30.04;39.56
71795;BME280;59641;45.188;5.712;2022-07-21T05:58:01;99654.25;;;30.04;39.51
71795;BME280;59641;45.188;5.712;2022-07-21T06:00:26;99652.66;;;30.03;39.58
71795;BME280;59641;45.188;5.712;2022-07-21T06:02:52;99664.97;;;30.05;40.16
71795;BME280;59641;45.188;5.712;2022-07-21T06:05:17;99654.25;;;30.04;40.12
71795;BME280;59641;45.188;5.712;2022-07-21T06:07:43;99667.06;;;30.08;40.01
71795;BME280;59641;45.188;5.712;2022-07-21T06:10:09;99673.84;;;30.11;39.71
71795;BME280;59641;45.188;5.712;2022-07-21T06:12:35;99671.09;;;30.11;39.80
71795;BME280;59641;45.188;5.712;2022-07-21T06:15:00;99668.78;;;30.13;39.92
71795;BME280;59641;45.188;5.712;2022-07-21T06:17:25;99671.91;;;30.11;40.05
71795;BME280;59641;45.188;5.712;2022-07-21T06:19:51;99676.28;;;30.12;39.50
71795;BME280;59641;45.188;5.712;2022-07-21T06:22:16;99682.63;;;30.13;39.71
71795;BME280;59641;45.188;5.712;2022-07-21T06:24:42;99674.69;;;30.11;39.75
71795;BME280;59641;45.188;5.712;2022-07-21T06:27:08;99681.81;;;30.12;39.73
71795;BME280;59641;45.188;5.712;2022-07-21T06:29:33;99687.38;;;30.12;39.67
71795;BME280;59641;45.188;5.712;2022-07-21T06:32:00;99683.31;;;30.10;39.83
71795;BME280;59641;45.188;5.712;2022-07-21T06:34:26;99694.50;;;30.13;39.77
71795;BME280;59641;45.188;5.712;2022-07-21T06:36:51;99691.41;;;30.15;40.34
71795;BME280;59641;45.188;5.712;2022-07-21T06:39:20;99683.91;;;30.15;39.89
71795;BME280;59641;45.188;5.712;2022-07-21T06:41:45;99693.84;;;30.17;39.76
71795;BME280;59641;45.188;5.712;2022-07-21T06:44:11;99694.28;;;30.19;39.79
71795;BME280;59641;45.188;5.712;2022-07-21T06:46:36;99696.25;;;30.18;40.04
71795;BME280;59641;45.188;5.712;2022-07-21T06:49:02;99697.03;;;30.19;39.87
71795;BME280;59641;45.188;5.712;2022-07-21T06:51:28;99699.47;;;30.20;39.58
71795;BME280;59641;45.188;5.712;2022-07-21T06:53:54;99698.69;;;30.20;39.91
71795;BME280;59641;45.188;5.712;2022-07-21T06:56:20;99701.78;;;30.18;39.70
71795;BME280;59641;45.188;5.712;2022-07-21T06:58:46;99698.22;;;30.18;39.82
71795;BME280;59641;45.188;5.712;2022-07-21T07:01:12;99702.56;;;30.19;39.84
71795;BME280;59641;45.188;5.712;2022-07-21T07:03:39;99698.69;;;30.20;40.00
71795;BME280;59641;45.188;5.712;2022-07-21T07:06:05;99707.78;;;30.20;39.42
71795;BME280;59641;45.188;5.712;2022-07-21T07:08:31;99699.81;;;30.19;39.99
71795;BME280;59641;45.188;5.712;2022-07-21T07:10:57;99699.81;;;30.19;39.68
71795;BME280;59641;45.188;5.712;2022-07-21T07:13:23;99698.22;;;30.18;39.90
71795;BME280;59641;45.188;5.712;2022-07-21T07:15:48;99697.03;;;30.19;39.81
71795;BME280;59641;45.188;5.712;2022-07-21T07:18:14;99694.28;;;30.19;39.74
71795;BME280;59641;45.188;5.712;2022-07-21T07:20:39;99691.06;;;30.17;40.06
71795;BME280;59641;45.188;5.712;2022-07-21T07:23:05;99697.41;;;30.17;40.00
71795;BME280;59641;45.188;5.712;2022-07-21T07:25:31;99693.47;;;30.18;40.02
71795;BME280;59641;45.188;5.712;2022-07-21T07:27:57;99690.22;;;30.16;40.35
71795;BME280;59641;45.188;5.712;2022-07-21T07:30:23;99699.16;;;30.22;40.09
71795;BME280;59641;45.188;5.712;2022-07-21T07:32:49;99693.59;;;30.22;39.96
71795;BME280;59641;45.188;5.712;2022-07-21T07:35:15;99693.59;;;30.22;39.96
71795;BME280;59641;45.188;5.712;2022-07-21T07:37:43;99685.97;;;30.19;40.05
71795;BME280;59641;45.188;5.712;2022-07-21T07:40:12;99686.09;;;30.22;39.74
71795;BME280;59641;45.188;5.712;2022-07-21T07:42:38;99684.16;;;30.23;40.06
71795;BME280;59641;45.188;5.712;2022-07-21T07:45:06;99677.00;;;30.22;40.01
71795;BME280;59641;45.188;5.712;2022-07-21T07:47:32;99682.19;;;30.23;39.88
71795;BME280;59641;45.188;5.712;2022-07-21T07:49:58;99680.56;;;30.22;40.44
71795;BME280;59641;45.188;5.712;2022-07-21T07:52:24;99672.28;;;30.22;40.06
71795;BME280;59641;45.188;5.712;2022-07-21T07:54:49;99671.81;;;30.20;39.84
71795;BME280;59641;45.188;5.712;2022-07-21T07:57:34;99677.47;;;30.24;40.25
71795;BME280;59641;45.188;5.712;2022-07-21T07:59:59;99663.97;;;30.22;40.34
71795;BME280;59641;45.188;5.712;2022-07-21T08:02:25;99663.50;;;30.20;39.92
71795;BME280;59641;45.188;5.712;2022-07-21T08:04:50;99662.69;;;30.20;40.31
71795;BME280;59641;45.188;5.712;2022-07-21T08:07:16;99661.53;;;30.21;40.15
71795;BME280;59641;45.188;5.712;2022-07-21T08:09:41;99658.75;;;30.21;39.93
71795;BME280;59641;45.188;5.712;2022-07-21T08:12:07;99657.25;;;30.23;39.96
71795;BME280;59641;45.188;5.712;2022-07-21T08:14:32;99658.09;;;30.24;40.11
71795;BME280;59641;45.188;5.712;2022-07-21T08:16:58;99658.44;;;30.22;40.04
71795;BME280;59641;45.188;5.712;2022-07-21T08:19:25;99654.88;;;30.22;39.79
71795;BME280;59641;45.188;5.712;2022-07-21T08:21:50;99658.44;;;30.22;39.54
71795;BME280;59641;45.188;5.712;2022-07-21T08:24:16;99654.41;;;30.20;39.72
71795;BME280;59641;45.188;5.712;2022-07-21T08:26:41;99652.09;;;30.22;39.37
71795;BME280;59641;45.188;5.712;2022-07-21T08:29:06;99652.91;;;30.22;39.55
71795;BME280;59641;45.188;5.712;2022-07-21T08:31:32;99645.28;;;30.19;39.86
71795;BME280;59641;45.188;5.712;2022-07-21T08:33:57;99637.78;;;30.20;39.64
71795;BME280;59641;45.188;5.712;2022-07-21T08:36:23;99642.63;;;30.23;40.30
71795;BME280;59641;45.188;5.712;2022-07-21T08:38:48;99639.06;;;30.22;39.91
71795;BME280;59641;45.188;5.712;2022-07-21T08:41:14;99641.81;;;30.22;39.41
71795;BME280;59641;45.188;5.712;2022-07-21T08:43:39;99625.22;;;30.22;39.72
71795;BME280;59641;45.188;5.712;2022-07-21T08:46:05;99620.84;;;30.21;39.85
71795;BME280;59641;45.188;5.712;2022-07-21T08:48:30;99628.00;;;30.22;39.92
71795;BME280;59641;45.188;5.712;2022-07-21T08:50:58;99624.41;;;30.22;39.57
71795;BME280;59641;45.188;5.712;2022-07-21T08:53:24;99620.84;;;30.21;39.37
71795;BME280;59641;45.188;5.712;2022-07-21T08:55:51;99625.22;;;30.22;40.13
71795;BME280;59641;45.188;5.712;2022-07-21T08:58:16;99623.72;;;30.25;39.95
71795;BME280;59641;45.188;5.712;2022-07-21T09:00:46;99617.72;;;30.23;40.32
71795;BME280;59641;45.188;5.712;2022-07-21T09:03:21;99620.47;;;30.23;40.21
71795;BME280;59641;45.188;5.712;2022-07-21T09:08:43;99625.03;;;30.27;39.82
71795;BME280;59641;45.188;5.712;2022-07-21T09:11:17;99613.94;;;30.27;40.16
71795;BME280;59641;45.188;5.712;2022-07-21T09:13:46;99615.91;;;30.27;40.49
71795;BME280;59641;45.188;5.712;2022-07-21T09:16:12;99612.81;;;30.28;40.64
71795;BME280;59641;45.188;5.712;2022-07-21T09:18:49;99610.03;;;30.28;40.56
71795;BME280;59641;45.188;5.712;2022-07-21T09:21:15;99603.34;;;30.29;40.56
71795;BME280;59641;45.188;5.712;2022-07-21T09:23:41;99599.78;;;30.29;40.86
71795;BME280;59641;45.188;5.712;2022-07-21T09:26:06;99599.78;;;30.29;40.41
71795;BME280;59641;45.188;5.712;2022-07-21T09:28:32;99601.75;;;30.28;40.37
71795;BME280;59641;45.188;5.712;2022-07-21T09:31:09;99605.78;;;30.31;40.68
71795;BME280;59641;45.188;5.712;2022-07-21T09:33:43;99603.81;;;30.31;40.70
71795;BME280;59641;45.188;5.712;2022-07-21T09:36:16;99595.50;;;30.31;40.76
71795;BME280;59641;45.188;5.712;2022-07-21T09:38:53;99586.72;;;30.29;40.28
71795;BME280;59641;45.188;5.712;2022-07-21T09:41:25;99588.47;;;30.34;40.13
71795;BME280;59641;45.188;5.712;2022-07-21T09:43:55;99578.19;;;30.34;40.51
71795;BME280;59641;45.188;5.712;2022-07-21T09:46:25;99581.75;;;30.35;41.04
71795;BME280;59641;45.188;5.712;2022-07-21T09:48:54;99577.94;;;30.40;40.63
71795;BME280;59641;45.188;5.712;2022-07-21T09:51:30;99573.34;;;30.44;41.00
71795;BME280;59641;45.188;5.712;2022-07-21T09:54:06;99581.06;;;30.50;40.89
71795;BME280;59641;45.188;5.712;2022-07-21T09:56:37;99575.63;;;30.54;41.64
71795;BME280;59641;45.188;5.712;2022-07-21T09:59:05;99571.00;;;30.58;41.10
71795;BME280;59641;45.188;5.712;2022-07-21T10:01:31;99568.34;;;30.62;41.18
71795;BME280;59641;45.188;5.712;2022-07-21T10:03:58;99567.66;;;30.65;40.88
71795;BME280;59641;45.188;5.712;2022-07-21T10:06:27;99561.41;;;30.68;41.12
71795;BME280;59641;45.188;5.712;2022-07-21T10:08:55;99558.41;;;30.73;40.66
71795;BME280;59641;45.188;5.712;2022-07-21T10:11:22;99556.09;;;30.75;41.43
71795;BME280;59641;45.188;5.712;2022-07-21T10:13:48;99553.78;;;30.77;41.14
71795;BME280;59641;45.188;5.712;2022-07-21T10:16:15;99561.03;;;30.82;42.18
71795;BME280;59641;45.188;5.712;2022-07-21T10:19:02;99549.13;;;30.81;41.07
71795;BME280;59641;45.188;5.712;2022-07-21T10:24:35;99542.31;;;30.78;41.19
71795;BME280;59641;45.188;5.712;2022-07-21T10:29:48;99537.25;;;30.81;40.82
71795;BME280;59641;45.188;5.712;2022-07-21T10:32:17;99535.19;;;30.77;40.85
71795;BME280;59641;45.188;5.712;2022-07-21T10:34:43;99538.03;;;30.81;41.42
71795;BME280;59641;45.188;5.712;2022-07-21T10:37:09;99539.38;;;30.84;41.55
71795;BME280;59641;45.188;5.712;2022-07-21T10:45:33;99523.28;;;31.17;41.23
71795;BME280;59641;45.188;5.712;2022-07-21T10:48:02;99526.94;;;31.21;40.69
71795;BME280;59641;45.188;5.712;2022-07-21T10:50:37;99504.69;;;31.18;40.97
71795;BME280;59641;45.188;5.712;2022-07-21T10:53:15;99504.09;;;31.25;41.05
71795;BME280;59641;45.188;5.712;2022-07-21T10:55:49;99512.13;;;31.30;40.61
71795;BME280;59641;45.188;5.712;2022-07-21T10:58:45;99504.28;;;31.32;40.88
71795;BME280;59641;45.188;5.712;2022-07-21T11:01:21;99489.56;;;31.31;40.51
71795;BME280;59641;45.188;5.712;2022-07-21T11:04:08;99499.81;;;31.43;40.39
71795;BME280;59641;45.188;5.712;2022-07-21T11:06:35;99493.59;;;31.46;40.82
71795;BME280;59641;45.188;5.712;2022-07-21T11:11:39;99489.38;;;31.52;40.40
71795;BME280;59641;45.188;5.712;2022-07-21T11:19:29;99475.84;;;31.51;40.75
71795;BME280;59641;45.188;5.712;2022-07-21T11:21:58;99482.91;;;31.48;40.25
71795;BME280;59641;45.188;5.712;2022-07-21T11:24:25;99476.13;;;31.46;40.46
71795;BME280;59641;45.188;5.712;2022-07-21T11:29:31;99479.25;;;31.44;40.36
71795;BME280;59641;45.188;5.712;2022-07-21T11:31:57;99463.78;;;31.43;40.19
71795;BME280;59641;45.188;5.712;2022-07-21T11:34:24;99459.41;;;31.42;40.45
71795;BME280;59641;45.188;5.712;2022-07-21T11:37:00;99458.16;;;31.39;40.47
71795;BME280;59641;45.188;5.712;2022-07-21T11:39:26;99457.66;;;31.37;40.82
71795;BME280;59641;45.188;5.712;2022-07-21T11:41:52;99451.31;;;31.37;40.39
71795;BME280;59641;45.188;5.712;2022-07-21T11:44:23;99441.38;;;31.36;40.78
71795;BME280;59641;45.188;5.712;2022-07-21T11:46:56;99437.00;;;31.35;40.86
71795;BME280;59641;45.188;5.712;2022-07-21T11:49:22;99437.34;;;31.33;40.44
71795;BME280;59641;45.188;5.712;2022-07-21T11:51:52;99428.59;;;31.31;40.79
71795;BME280;59641;45.188;5.712;2022-07-21T11:54:30;99432.53;;;31.30;40.75
71795;BME280;59641;45.188;5.712;2022-07-21T11:56:57;99428.13;;;31.29;40.46
71795;BME280;59641;45.188;5.712;2022-07-21T11:59:23;99418.22;;;31.28;40.39
71795;BME280;59641;45.188;5.712;2022-07-21T12:01:55;99415.81;;;31.27;40.62
71795;BME280;59641;45.188;5.712;2022-07-21T12:04:28;99420.53;;;31.26;40.88
71795;BME280;59641;45.188;5.712;2022-07-21T12:07:01;99409.84;;;31.25;40.96
71795;BME280;59641;45.188;5.712;2022-07-21T12:09:31;99408.56;;;31.22;40.70
71795;BME280;59641;45.188;5.712;2022-07-21T12:11:57;99407.41;;;31.23;40.93
71795;BME280;59641;45.188;5.712;2022-07-21T12:17:48;99395.88;;;31.21;40.78
71795;BME280;59641;45.188;5.712;2022-07-21T12:20:15;99400.63;;;31.20;41.00
71795;BME280;59641;45.188;5.712;2022-07-21T12:22:48;99391.06;;;31.18;41.03
71795;BME280;59641;45.188;5.712;2022-07-21T12:25:16;99399.00;;;31.19;40.66
71795;BME280;59641;45.188;5.712;2022-07-21T12:27:45;99393.81;;;31.18;41.03
71795;BME280;59641;45.188;5.712;2022-07-21T12:30:48;99373.16;;;31.15;40.50
71795;BME280;59641;45.188;5.712;2022-07-21T12:33:20;99381.47;;;31.15;40.78
71795;BME280;59641;45.188;5.712;2022-07-21T12:36:04;99372.72;;;31.13;40.61
71795;BME280;59641;45.188;5.712;2022-07-21T12:41:07;99363.97;;;31.11;41.16
71795;BME280;59641;45.188;5.712;2022-07-21T12:43:33;99362.78;;;31.12;40.77
71795;BME280;59641;45.188;5.712;2022-07-21T12:46:12;99359.59;;;31.10;40.93
71795;BME280;59641;45.188;5.712;2022-07-21T12:48:39;99362.34;;;31.10;40.97
71795;BME280;59641;45.188;5.712;2022-07-21T12:51:14;99363.16;;;31.11;40.79
71795;BME280;59641;45.188;5.712;2022-07-21T12:53:49;99357.50;;;31.07;40.66
71795;BME280;59641;45.188;5.712;2022-07-21T12:56:18;99358.75;;;31.10;41.23
71795;BME280;59641;45.188;5.712;2022-07-21T12:58:44;99351.50;;;31.05;41.19
71795;BME280;59641;45.188;5.712;2022-07-21T13:01:10;99346.81;;;31.06;41.06
71795;BME280;59641;45.188;5.712;2022-07-21T13:03:36;99348.84;;;31.09;40.90
71795;BME280;59641;45.188;5.712;2022-07-21T13:06:04;99349.19;;;31.07;41.06
71795;BME280;59641;45.188;5.712;2022-07-21T13:08:30;99337.66;;;31.05;41.21
71795;BME280;59641;45.188;5.712;2022-07-21T13:10:56;99349.19;;;31.07;40.87
71795;BME280;59641;45.188;5.712;2022-07-21T13:13:21;99338.03;;;31.04;41.33
71795;BME280;59641;45.188;5.712;2022-07-21T13:15:48;99343.19;;;31.05;41.18
71795;BME280;59641;45.188;5.712;2022-07-21T13:18:14;99338.84;;;31.04;41.43
71795;BME280;59641;45.188;5.712;2022-07-21T13:20:40;99336.88;;;31.05;41.13
71795;BME280;59641;45.188;5.712;2022-07-21T13:23:06;99331.31;;;31.05;41.44
71795;BME280;59641;45.188;5.712;2022-07-21T13:25:34;99334.09;;;31.05;41.60
71795;BME280;59641;45.188;5.712;2022-07-21T13:28:03;99330.97;;;31.06;41.43
71795;BME280;59641;45.188;5.712;2022-07-21T13:30:30;99324.97;;;31.04;41.47
71795;BME280;59641;45.188;5.712;2022-07-21T13:32:56;99331.78;;;31.07;41.34
71795;BME280;59641;45.188;5.712;2022-07-21T13:35:22;99325.78;;;31.05;41.37
71795;BME280;59641;45.188;5.712;2022-07-21T13:37:47;99322.31;;;31.08;41.22